Time;durP1;ratioP1;P1;durP2;ratioP2;P2;SDS_P1;SDS_P2;PMS_P1;PMS_P2;Temp;Humidity;BMP_temperature;BMP_pressure;BME280_temperature;BME280_humidity;BME280_pressure;Samples;Min_cycle;Max_cycle;Signal;HPM_P1;HPM_P2
2021/09/07 00:00:56;;;;;;;2.00;1.60;;;;;;;11.26;67.15;101699.91;5088788;28;20211;-63
2021/09/07 00:03:25;;;;;;;3.70;1.67;;;;;;;11.24;67.22;101704.50;5087184;28;20209;-63
2021/09/07 00:05:53;;;;;;;1.67;1.43;;;;;;;11.18;67.09;101702.16;5087378;28;20679;-64
2021/09/07 00:08:21;;;;;;;2.73;1.57;;;;;;;11.14;67.35;101708.66;5088235;28;20207;-63
2021/09/07 00:10:50;;;;;;;3.20;1.50;;;;;;;11.12;67.55;101713.25;5074796;28;20885;-64
2021/09/07 00:13:19;;;;;;;2.73;1.63;;;;;;;11.07;67.03;101699.19;5087990;28;20285;-64
2021/09/07 00:15:47;;;;;;;3.43;1.63;;;;;;;11.05;67.47;101711.84;5086895;28;20206;-63
2021/09/07 00:18:16;;;;;;;1.97;1.40;;;;;;;11.03;67.52;101705.69;5088237;28;20210;-63
2021/09/07 00:20:44;;;;;;;1.53;1.33;;;;;;;11.00;67.49;101708.50;5087471;28;20205;-63
2021/09/07 00:23:12;;;;;;;2.97;1.70;;;;;;;10.99;67.56;101709.47;5073990;28;20205;-63
2021/09/07 00:25:40;;;;;;;3.17;1.60;;;;;;;10.96;67.29;101709.63;5087936;28;20722;-64
2021/09/07 00:28:10;;;;;;;4.20;2.10;;;;;;;10.91;67.43;101709.03;5087460;28;20198;-63
2021/09/07 00:30:38;;;;;;;2.67;1.77;;;;;;;10.85;67.66;101705.72;5078425;28;20577;-64
2021/09/07 00:33:08;;;;;;;3.20;1.53;;;;;;;10.81;67.96;101706.84;5087176;28;20672;-63
2021/09/07 00:35:37;;;;;;;2.10;1.50;;;;;;;10.80;67.52;101701.53;5087809;28;20199;-63
2021/09/07 00:38:05;;;;;;;4.63;2.17;;;;;;;10.78;67.07;101698.94;5086913;28;20207;-64
2021/09/07 00:40:33;;;;;;;3.33;1.97;;;;;;;10.72;67.57;101699.28;5088016;28;20709;-64
2021/09/07 00:43:02;;;;;;;1.90;1.50;;;;;;;10.67;67.62;101693.25;5087183;28;20544;-69
2021/09/07 00:45:31;;;;;;;2.90;1.80;;;;;;;10.68;67.50;101694.97;5087377;28;20223;-69
2021/09/07 00:47:59;;;;;;;3.27;1.50;;;;;;;10.65;67.82;101692.47;5087480;28;20716;-64
2021/09/07 00:50:27;;;;;;;2.60;1.80;;;;;;;10.60;68.12;101693.66;5088122;28;20681;-64
2021/09/07 00:52:56;;;;;;;4.43;2.10;;;;;;;10.60;67.54;101690.97;5087797;28;20216;-64
2021/09/07 00:55:26;;;;;;;2.53;1.70;;;;;;;10.57;67.23;101682.13;5086454;28;20417;-69
2021/09/07 00:57:56;;;;;;;2.53;1.53;;;;;;;10.57;67.21;101675.88;5087741;28;20697;-69
2021/09/07 01:00:25;;;;;;;4.17;1.80;;;;;;;10.55;67.85;101667.03;5079675;28;20584;-69
2021/09/07 01:02:55;;;;;;;2.90;1.80;;;;;;;10.51;67.94;101666.34;5084456;28;20214;-69
2021/09/07 01:05:23;;;;;;;3.90;1.70;;;;;;;10.45;67.90;101666.66;5080373;28;20211;-69
2021/09/07 01:07:54;;;;;;;3.10;1.77;;;;;;;10.36;68.73;101663.56;5080283;28;20391;-69
2021/09/07 01:10:22;;;;;;;2.67;1.77;;;;;;;10.32;69.37;101667.38;5076382;28;20220;-69
2021/09/07 01:12:51;;;;;;;1.73;1.60;;;;;;;10.29;69.28;101668.41;5083188;28;20606;-69
2021/09/07 01:15:21;;;;;;;5.00;1.50;;;;;;;10.25;69.23;101666.81;5077054;28;20212;-69
2021/09/07 01:17:49;;;;;;;4.57;2.13;;;;;;;10.26;68.48;101672.13;5078819;28;20546;-69
2021/09/07 01:20:20;;;;;;;3.83;1.87;;;;;;;10.26;68.41;101677.47;5087373;28;20195;-69
2021/09/07 01:22:48;;;;;;;3.40;1.90;;;;;;;10.26;68.61;101676.63;5087639;28;20215;-69
2021/09/07 01:25:19;;;;;;;3.77;1.80;;;;;;;10.26;68.28;101680.16;5090657;28;20229;-69
2021/09/07 01:27:48;;;;;;;3.10;1.80;;;;;;;10.06;68.32;101644.50;5091311;28;20219;-69
2021/09/07 01:30:18;;;;;;;5.80;2.10;;;;;;;10.25;68.45;101683.81;5077356;28;20228;-69
2021/09/07 01:32:48;;;;;;;3.50;2.00;;;;;;;10.24;67.95;101681.19;5091697;28;20238;-69
2021/09/07 01:35:16;;;;;;;5.07;2.60;;;;;;;10.20;68.25;101674.22;5090916;28;20614;-69
2021/09/07 01:37:44;;;;;;;8.00;2.00;;;;;;;10.18;68.63;101681.47;5091294;28;20583;-69
2021/09/07 01:40:13;;;;;;;4.70;2.53;;;;;;;10.15;68.80;101676.28;5091158;28;20238;-69
2021/09/07 01:42:42;;;;;;;3.87;2.10;;;;;;;10.12;68.79;101679.13;5091517;28;20204;-69
2021/09/07 01:45:11;;;;;;;6.23;2.63;;;;;;;10.07;68.78;101695.44;5090819;28;20262;-69
2021/09/07 01:47:40;;;;;;;4.23;2.53;;;;;;;10.01;68.87;101682.31;5076321;28;20200;-69
2021/09/07 01:50:10;;;;;;;4.23;2.17;;;;;;;10.00;69.33;101679.72;5090892;28;20212;-69
2021/09/07 01:52:38;;;;;;;5.03;2.40;;;;;;;9.94;69.17;101681.75;5090898;28;20665;-69
2021/09/07 01:55:07;;;;;;;101.33;59.70;;;;;;;9.90;69.41;101682.88;5091223;28;20223;-69
2021/09/07 01:57:38;;;;;;;40.07;22.80;;;;;;;9.91;69.62;101673.00;5090900;28;20262;-69
2021/09/07 02:00:09;;;;;;;18.67;9.20;;;;;;;9.89;70.44;101665.03;5090899;28;20195;-69
2021/09/07 02:02:43;;;;;;;12.33;7.90;;;;;;;9.74;71.76;101627.38;5086065;28;20672;-69
2021/09/07 02:05:12;;;;;;;5.00;3.37;;;;;;;9.89;70.80;101658.81;5079906;28;20516;-69
2021/09/07 02:07:41;;;;;;;9.17;4.93;;;;;;;9.93;70.60;101655.00;5090294;28;20208;-69
2021/09/07 02:10:10;;;;;;;8.40;5.40;;;;;;;9.96;69.86;101645.00;5090719;28;20216;-69
2021/09/07 02:12:40;;;;;;;3.93;2.60;;;;;;;10.00;69.86;101655.56;5090647;28;20214;-69
2021/09/07 02:15:10;;;;;;;6.40;2.63;;;;;;;10.01;69.36;101652.81;5090344;28;20675;-69
2021/09/07 02:17:41;;;;;;;4.60;2.33;;;;;;;9.64;68.83;101606.38;5091018;28;20212;-69
2021/09/07 02:20:12;;;;;;;8.63;2.70;;;;;;;9.92;69.01;101659.50;5089150;28;20667;-69
2021/09/07 02:22:42;;;;;;;5.57;2.40;;;;;;;9.65;68.95;101613.47;5089208;28;20200;-69
2021/09/07 02:25:12;;;;;;;6.13;2.37;;;;;;;9.90;68.94;101655.16;5090058;28;20240;-69
2021/09/07 02:27:41;;;;;;;7.20;4.80;;;;;;;9.84;69.18;101659.03;5090451;28;20260;-69
2021/09/07 02:30:13;;;;;;;7.43;2.60;;;;;;;9.88;69.02;101667.78;5090170;28;20213;-69
2021/09/07 02:32:41;;;;;;;4.17;2.50;;;;;;;9.85;69.22;101658.09;5090493;28;20303;-69
2021/09/07 02:35:10;;;;;;;4.53;2.47;;;;;;;9.83;68.85;101653.75;5089666;28;20204;-70
2021/09/07 02:37:38;;;;;;;3.93;2.27;;;;;;;9.82;68.92;101654.69;5088087;28;20213;-69
2021/09/07 02:40:08;;;;;;;5.17;2.50;;;;;;;9.82;68.33;101665.44;5089974;28;20212;-69
2021/09/07 02:42:37;;;;;;;3.83;2.40;;;;;;;9.81;68.35;101663.69;5090424;28;20204;-69
2021/09/07 02:45:07;;;;;;;3.90;2.13;;;;;;;9.81;68.74;101661.88;5089615;28;20258;-69
2021/09/07 02:47:40;;;;;;;3.27;2.17;;;;;;;9.81;68.80;101661.88;5090551;28;20426;-70
2021/09/07 02:50:10;;;;;;;4.33;2.50;;;;;;;9.80;68.50;101664.63;5089797;28;20588;-63
2021/09/07 02:52:39;;;;;;;6.87;2.87;;;;;;;9.75;68.42;101655.91;5089990;28;20295;-64
2021/09/07 02:55:09;;;;;;;4.03;2.20;;;;;;;9.80;68.71;101659.28;5087760;28;20231;-63
2021/09/07 02:57:38;;;;;;;5.30;2.73;;;;;;;9.82;68.28;101658.25;5089558;28;20777;-64
2021/09/07 03:00:08;;;;;;;3.87;2.00;;;;;;;9.84;68.25;101663.53;5089929;28;20193;-64
2021/09/07 03:02:36;;;;;;;5.50;2.87;;;;;;;9.84;68.01;101658.16;5075455;28;20199;-63
2021/09/07 03:05:08;;;;;;;3.70;1.90;;;;;;;9.84;67.67;101656.34;5087013;28;20575;-64
2021/09/07 03:07:38;;;;;;;3.13;1.93;;;;;;;9.85;67.45;101641.13;5079953;28;20224;-65
2021/09/07 03:10:07;;;;;;;4.47;2.20;;;;;;;9.85;68.08;101647.34;5083328;28;20655;-65
2021/09/07 03:12:37;;;;;;;6.00;2.30;;;;;;;9.84;67.98;101640.25;5089400;28;20212;-65
2021/09/07 03:15:06;;;;;;;9.17;2.37;;;;;;;9.90;67.41;101639.94;5074122;28;20199;-65
2021/09/07 03:17:35;;;;;;;3.47;2.10;;;;;;;9.93;67.46;101644.28;5088752;28;20230;-64
2021/09/07 03:20:09;;;;;;;3.50;1.83;;;;;;;9.84;68.33;101636.72;5086628;28;20732;-64
2021/09/07 03:22:37;;;;;;;3.23;1.97;;;;;;;9.81;68.23;101643.09;5094895;28;20237;-64
2021/09/07 03:25:05;;;;;;;4.30;2.27;;;;;;;9.78;68.15;101639.66;5072139;28;20599;-65
2021/09/07 03:27:35;;;;;;;10.50;2.50;;;;;;;9.71;68.07;101627.53;5077621;28;20311;-65
2021/09/07 03:30:04;;;;;;;5.00;2.20;;;;;;;9.75;68.04;101637.16;5079968;28;20239;-64
2021/09/07 03:32:32;;;;;;;4.10;2.27;;;;;;;9.68;68.58;101636.59;5074275;28;20713;-64
2021/09/07 03:35:02;;;;;;;4.40;2.30;;;;;;;9.68;68.29;101633.03;5072367;28;20744;-64
2021/09/07 03:37:32;;;;;;;4.67;2.30;;;;;;;9.72;68.19;101631.94;5079769;28;20693;-65
2021/09/07 03:40:01;;;;;;;4.20;2.13;;;;;;;9.79;68.08;101642.28;5082649;28;20238;-64
2021/09/07 03:42:34;;;;;;;5.07;2.30;;;;;;;9.82;68.00;101638.59;5069288;28;20208;-65
2021/09/07 03:45:04;;;;;;;3.17;1.93;;;;;;;9.82;67.58;101633.22;5070440;28;20200;-64
2021/09/07 03:47:34;;;;;;;3.10;2.27;;;;;;;9.84;67.81;101639.38;5076625;28;20298;-64
2021/09/07 03:50:04;;;;;;;5.10;2.30;;;;;;;9.82;67.46;101643.97;5069446;28;20213;-65
2021/09/07 03:52:34;;;;;;;3.73;2.37;;;;;;;9.79;67.61;101638.72;5069914;28;20696;-65
2021/09/07 03:55:04;;;;;;;4.23;2.43;;;;;;;9.74;68.20;101644.31;5077635;28;20224;-65
2021/09/07 03:57:33;;;;;;;3.57;2.13;;;;;;;9.69;68.69;101653.56;5068619;28;20209;-64
2021/09/07 04:00:02;;;;;;;3.50;2.60;;;;;;;9.64;68.14;101657.34;5069481;28;20201;-64
2021/09/07 04:02:40;;;;;;;3.83;2.13;;;;;;;9.64;68.51;101662.69;5070058;28;20207;-64
2021/09/07 04:05:10;;;;;;;4.57;2.30;;;;;;;9.62;68.92;101667.25;5076173;28;20636;-64
2021/09/07 04:07:40;;;;;;;4.20;2.10;;;;;;;9.51;68.64;101650.84;5080567;28;20195;-64
2021/09/07 04:10:10;;;;;;;7.47;2.27;;;;;;;9.63;68.42;101670.81;5088290;28;20208;-64
2021/09/07 04:12:38;;;;;;;5.57;2.30;;;;;;;9.67;68.26;101671.53;5086430;28;20695;-65
2021/09/07 04:15:07;;;;;;;3.67;2.00;;;;;;;9.71;67.97;101665.06;5074213;28;20203;-64
2021/09/07 04:17:36;;;;;;;2.97;2.07;;;;;;;9.73;68.11;101674.78;5087037;28;20569;-65
2021/09/07 04:20:06;;;;;;;2.73;2.10;;;;;;;9.67;68.89;101658.13;5074773;28;20211;-64
2021/09/07 04:22:35;;;;;;;5.43;2.37;;;;;;;9.60;69.49;101661.13;5080444;28;20200;-64
2021/09/07 04:25:06;;;;;;;4.43;1.97;;;;;;;9.55;68.91;101640.84;5071319;28;20232;-63
2021/09/07 04:27:35;;;;;;;5.97;2.10;;;;;;;9.66;69.04;101659.94;5075956;28;20207;-64
2021/09/07 04:30:04;;;;;;;4.90;2.23;;;;;;;9.69;69.06;101658.91;5069466;28;20583;-64
2021/09/07 04:32:32;;;;;;;95.33;73.63;;;;;;;9.72;69.26;101665.00;5077595;28;20228;-64
2021/09/07 04:35:00;;;;;;;17.00;12.37;;;;;;;9.76;68.89;101654.97;5082379;28;20206;-65
2021/09/07 04:37:28;;;;;;;7.50;4.20;;;;;;;9.74;69.93;101638.97;5079783;28;20203;-65
2021/09/07 04:39:57;;;;;;;8.73;4.57;;;;;;;9.83;71.67;101643.88;5083271;28;20201;-66
2021/09/07 04:42:26;;;;;;;11.33;6.33;;;;;;;9.85;73.48;101642.00;5082115;28;20288;-64
2021/09/07 04:44:57;;;;;;;10.10;6.40;;;;;;;9.92;73.09;101640.72;5081367;28;20726;-66
2021/09/07 04:47:26;;;;;;;7.87;4.20;;;;;;;9.99;73.44;101633.22;5082432;28;20216;-64
2021/09/07 04:49:55;;;;;;;4.77;2.70;;;;;;;10.12;72.48;101634.34;5083650;28;20732;-65
2021/09/07 04:52:23;;;;;;;3.73;2.37;;;;;;;10.17;71.63;101623.38;5085510;28;20339;-65
2021/09/07 04:54:51;;;;;;;7.50;2.50;;;;;;;10.21;70.79;101625.84;5085658;28;20665;-65
2021/09/07 04:57:19;;;;;;;4.30;2.63;;;;;;;10.24;70.19;101628.38;5083047;28;20203;-65
2021/09/07 04:59:49;;;;;;;5.03;2.53;;;;;;;10.31;69.90;101622.69;5074729;28;20205;-65
2021/09/07 05:02:17;;;;;;;5.00;2.43;;;;;;;10.35;70.11;101622.44;5067173;28;20193;-64
2021/09/07 05:04:45;;;;;;;3.73;2.40;;;;;;;10.35;71.26;101621.56;5069524;28;20889;-65
2021/09/07 05:07:14;;;;;;;3.93;2.27;;;;;;;10.38;71.67;101624.09;5073951;28;20732;-66
2021/09/07 05:09:42;;;;;;;5.67;2.30;;;;;;;10.55;71.16;101640.19;5086037;28;20618;-65
2021/09/07 05:12:10;;;;;;;5.53;2.67;;;;;;;10.67;71.94;101639.50;5077451;28;20221;-65
2021/09/07 05:14:39;;;;;;;3.87;2.17;;;;;;;10.79;72.32;101633.50;5072498;28;20215;-65
2021/09/07 05:17:10;;;;;;;4.57;2.70;;;;;;;10.85;71.95;101622.41;5068289;28;20206;-65
2021/09/07 05:19:38;;;;;;;4.00;2.50;;;;;;;10.94;71.59;101626.41;5073256;28;20254;-64
2021/09/07 05:22:06;;;;;;;6.60;2.70;;;;;;;10.84;72.06;101601.88;5073574;28;20196;-65
2021/09/07 05:24:34;;;;;;;6.13;2.47;;;;;;;11.09;72.34;101628.25;5073198;28;20228;-64
2021/09/07 05:27:02;;;;;;;4.20;2.50;;;;;;;11.12;72.36;101617.34;5074492;28;20204;-64
2021/09/07 05:29:31;;;;;;;3.03;2.40;;;;;;;11.23;73.98;101622.09;5075990;28;20208;-65
2021/09/07 05:31:59;;;;;;;5.93;2.83;;;;;;;11.29;76.10;101616.38;5075076;28;20620;-65
2021/09/07 05:34:30;;;;;;;4.43;2.73;;;;;;;11.26;76.31;101595.03;5073295;28;20208;-64
2021/09/07 05:36:58;;;;;;;4.93;2.37;;;;;;;11.52;76.15;101621.31;5069179;28;20231;-64
2021/09/07 05:39:26;;;;;;;4.30;2.80;;;;;;;11.74;78.52;101636.22;5068786;28;20200;-65
2021/09/07 05:41:55;;;;;;;6.37;3.10;;;;;;;12.01;76.03;101634.63;5067312;28;20204;-64
2021/09/07 05:44:23;;;;;;;7.17;3.17;;;;;;;12.32;76.37;101633.66;5065106;28;20193;-65
2021/09/07 05:46:51;;;;;;;4.00;2.67;;;;;;;12.68;74.99;101627.81;5067421;28;20202;-65
2021/09/07 05:49:20;;;;;;;6.30;3.10;;;;;;;13.08;75.39;101630.69;5066055;28;20871;-64
2021/09/07 05:51:49;;;;;;;7.03;2.87;;;;;;;13.40;74.90;101627.78;5067438;28;20611;-64
2021/09/07 05:54:17;;;;;;;4.10;2.73;;;;;;;13.63;73.64;101624.44;5065230;28;20219;-65
2021/09/07 05:56:45;;;;;;;5.70;2.53;;;;;;;13.95;73.65;101622.28;5068575;28;20205;-65
2021/09/07 05:59:14;;;;;;;4.20;2.67;;;;;;;14.28;73.67;101627.19;5068429;28;20196;-65
2021/09/07 06:01:42;;;;;;;4.63;2.27;;;;;;;14.49;72.84;101636.56;5065408;28;20215;-65
2021/09/07 06:04:11;;;;;;;7.60;2.70;;;;;;;14.66;72.07;101620.97;5066542;28;20877;-65
2021/09/07 06:06:39;;;;;;;6.57;2.40;;;;;;;14.80;70.85;101616.34;5076852;28;20196;-64
2021/09/07 06:09:08;;;;;;;4.30;2.57;;;;;;;14.88;71.15;101619.34;5082799;28;20204;-64
2021/09/07 06:11:38;;;;;;;2.73;2.03;;;;;;;15.10;69.31;101629.50;5090266;28;20734;-65
2021/09/07 06:14:08;;;;;;;3.77;2.33;;;;;;;15.26;68.74;101615.69;5078468;28;20697;-65
2021/09/07 06:16:36;;;;;;;4.73;2.70;;;;;;;15.44;68.26;101608.06;5088735;28;20203;-65
2021/09/07 06:19:05;;;;;;;2.97;1.90;;;;;;;15.62;66.53;101603.16;5090454;28;20212;-64
2021/09/07 06:21:33;;;;;;;3.47;2.37;;;;;;;15.81;65.17;101603.50;5090482;28;20200;-65
2021/09/07 06:24:01;;;;;;;4.47;2.30;;;;;;;15.90;66.02;101599.22;5090476;28;20276;-65
2021/09/07 06:26:31;;;;;;;4.57;2.10;;;;;;;16.07;64.69;101596.94;5090149;28;20217;-65
2021/09/07 06:28:59;;;;;;;4.60;2.07;;;;;;;16.30;64.54;101602.44;5080561;28;20545;-65
2021/09/07 06:31:28;;;;;;;4.97;2.50;;;;;;;16.44;64.96;101605.78;5084388;28;20282;-65
2021/09/07 06:33:56;;;;;;;3.60;2.10;;;;;;;16.61;65.10;101606.31;5088760;28;20228;-65
2021/09/07 06:36:24;;;;;;;4.20;2.03;;;;;;;16.73;64.46;101605.34;5090141;28;20205;-65
2021/09/07 06:38:52;;;;;;;3.40;2.20;;;;;;;16.84;65.94;101612.66;5083600;28;20508;-65
2021/09/07 06:41:20;;;;;;;4.50;2.20;;;;;;;16.97;65.70;101600.69;5079211;28;20782;-64
2021/09/07 06:43:50;;;;;;;5.73;2.77;;;;;;;17.02;65.43;101616.59;5080350;28;20578;-65
2021/09/07 06:46:18;;;;;;;5.87;2.43;;;;;;;16.96;65.02;101608.94;5076467;28;20262;-65
2021/09/07 06:48:46;;;;;;;6.17;2.40;;;;;;;17.07;63.96;101608.94;5075402;28;20652;-66
2021/09/07 06:51:14;;;;;;;2.70;2.00;;;;;;;17.17;64.19;101611.78;5079650;28;20241;-65
2021/09/07 06:53:42;;;;;;;4.37;2.10;;;;;;;17.25;64.82;101615.59;5073534;28;20205;-65
2021/09/07 06:56:11;;;;;;;3.93;2.37;;;;;;;17.41;62.93;101612.44;5081923;28;20702;-64
2021/09/07 06:58:39;;;;;;;3.20;2.43;;;;;;;16.56;63.56;101478.34;5077223;28;20600;-65
2021/09/07 07:01:08;;;;;;;4.07;2.30;;;;;;;17.41;64.10;101623.31;5073565;28;20212;-65
2021/09/07 07:03:37;;;;;;;4.07;2.43;;;;;;;17.56;62.95;101627.50;5072165;28;20562;-65
2021/09/07 07:06:05;;;;;;;4.27;2.50;;;;;;;17.53;63.15;101621.47;5074474;28;20682;-65
2021/09/07 07:08:33;;;;;;;7.30;2.30;;;;;;;17.61;62.66;101627.97;5071882;28;20675;-65
2021/09/07 07:11:02;;;;;;;3.03;2.30;;;;;;;17.66;62.75;101623.00;5081821;28;20254;-65
2021/09/07 07:13:30;;;;;;;4.37;2.10;;;;;;;17.81;62.20;101622.78;5079529;28;20612;-65
2021/09/07 07:15:58;;;;;;;3.40;2.20;;;;;;;17.95;59.96;101631.47;5078154;28;20765;-65
2021/09/07 07:18:28;;;;;;;5.43;2.40;;;;;;;17.85;61.57;101629.66;5079230;28;20209;-65
2021/09/07 07:20:56;;;;;;;2.73;2.23;;;;;;;17.86;62.64;101624.09;5081072;28;20524;-65
2021/09/07 07:23:24;;;;;;;4.87;2.70;;;;;;;17.90;63.84;101630.13;5082005;28;20193;-65
2021/09/07 07:25:52;;;;;;;6.67;2.30;;;;;;;18.18;63.26;101628.66;5074016;28;20838;-65
2021/09/07 07:28:20;;;;;;;4.63;2.50;;;;;;;18.22;63.48;101619.25;5081559;28;20545;-69
2021/09/07 07:30:48;;;;;;;4.17;2.20;;;;;;;18.52;60.34;101622.03;5084872;28;20193;-69
2021/09/07 07:33:16;;;;;;;5.40;2.37;;;;;;;18.37;62.42;101617.03;5078700;28;20213;-69
2021/09/07 07:35:46;;;;;;;3.43;2.30;;;;;;;18.55;60.43;101621.75;5082004;28;20188;-69
2021/09/07 07:38:14;;;;;;;4.73;2.30;;;;;;;18.58;61.20;101626.06;5087047;28;20193;-68
2021/09/07 07:40:44;;;;;;;5.47;2.37;;;;;;;18.67;60.81;101622.56;5087716;28;20201;-69
2021/09/07 07:43:13;;;;;;;3.57;2.17;;;;;;;18.67;61.87;101618.97;5087926;28;20191;-69
2021/09/07 07:45:41;;;;;;;4.87;2.07;;;;;;;18.52;61.53;101611.16;5080342;28;20203;-69
2021/09/07 07:48:09;;;;;;;5.80;2.60;;;;;;;18.67;60.24;101606.22;5086177;28;20207;-69
2021/09/07 07:50:37;;;;;;;3.40;2.40;;;;;;;18.53;62.00;101599.25;5080349;28;20206;-69
2021/09/07 07:53:08;;;;;;;4.90;2.40;;;;;;;18.78;60.67;101608.88;5085158;28;20193;-69
2021/09/07 07:55:37;;;;;;;3.07;2.30;;;;;;;18.76;61.72;101607.31;5080104;28;20652;-69
2021/09/07 07:58:24;;;;;;;4.20;2.10;;;;;;;18.98;59.53;101606.22;5085149;28;20678;-69
2021/09/07 08:00:52;;;;;;;4.73;2.00;;;;;;;18.99;59.76;101613.44;5080257;28;20571;-65
2021/09/07 08:03:20;;;;;;;3.93;2.20;;;;;;;19.11;58.30;101620.50;5086077;28;20192;-65
2021/09/07 08:05:49;;;;;;;5.30;2.47;;;;;;;18.99;60.65;101619.75;5084711;28;20205;-65
2021/09/07 08:08:19;;;;;;;8.63;2.47;;;;;;;18.92;61.28;101621.25;5086514;28;20275;-65
2021/09/07 08:10:48;;;;;;;4.80;2.47;;;;;;;19.00;60.29;101616.00;5088225;28;20200;-65
2021/09/07 08:13:16;;;;;;;4.47;2.50;;;;;;;19.11;60.19;101623.22;5079994;28;20197;-65
2021/09/07 08:15:48;;;;;;;5.83;2.33;;;;;;;19.27;60.14;101615.38;5083645;28;20200;-65
2021/09/07 08:18:16;;;;;;;8.00;2.30;;;;;;;19.45;60.49;101610.97;5084505;28;20549;-66
2021/09/07 08:20:44;;;;;;;7.27;2.03;;;;;;;19.72;58.85;101614.94;5086851;28;20291;-66
2021/09/07 08:23:12;;;;;;;4.87;2.30;;;;;;;19.75;59.64;101587.38;5086195;28;20630;-66
2021/09/07 08:25:42;;;;;;;3.83;2.10;;;;;;;19.71;60.98;101596.88;5084783;28;20316;-70
2021/09/07 08:28:10;;;;;;;8.90;2.50;;;;;;;19.99;58.36;101617.81;5080006;28;20430;-66
2021/09/07 08:30:38;;;;;;;5.13;2.60;;;;;;;19.98;55.28;101585.25;5082779;28;20201;-67
2021/09/07 08:33:13;;;;;;;5.10;2.17;;;;;;;20.20;56.19;101611.34;5083886;28;20193;-70
2021/09/07 08:35:45;;;;;;;6.77;2.60;;;;;;;20.33;55.03;101607.31;5085759;28;20220;-70
2021/09/07 08:38:14;;;;;;;9.20;2.97;;;;;;;20.13;57.06;101616.50;5084255;28;20548;-70
2021/09/07 08:40:44;;;;;;;5.93;2.40;;;;;;;20.03;58.75;101621.13;5080703;28;20266;-70
2021/09/07 08:43:12;;;;;;;5.17;2.60;;;;;;;19.86;58.99;101622.69;5087099;28;20567;-70
2021/09/07 08:45:41;;;;;;;3.97;2.33;;;;;;;19.80;58.98;101617.81;5087747;28;20195;-70
2021/09/07 08:48:09;;;;;;;5.60;2.80;;;;;;;19.82;59.51;101610.34;5085515;28;20606;-70
2021/09/07 08:50:37;;;;;;;6.10;2.70;;;;;;;19.61;59.50;101599.59;5082828;28;20276;-65
2021/09/07 08:53:05;;;;;;;3.70;2.40;;;;;;;19.82;59.35;101613.06;5082892;28;20204;-66
2021/09/07 08:55:34;;;;;;;5.00;2.30;;;;;;;19.79;59.03;101619.66;5081562;28;20640;-66
2021/09/07 08:58:03;;;;;;;7.43;2.10;;;;;;;19.76;59.45;101622.69;5086264;28;20203;-65
2021/09/07 09:00:33;;;;;;;4.13;2.30;;;;;;;19.81;60.06;101603.16;5086002;28;20200;-65
2021/09/07 09:03:08;;;;;;;6.40;2.40;;;;;;;19.65;58.41;101572.91;5080592;28;20205;-65
2021/09/07 09:05:37;;;;;;;2.70;2.00;;;;;;;19.99;57.24;101598.75;5082311;28;20597;-66
2021/09/07 09:08:10;;;;;;;3.63;2.10;;;;;;;19.94;57.65;101600.19;5087614;28;20192;-65
2021/09/07 09:10:39;;;;;;;4.77;2.27;;;;;;;19.97;57.26;101602.63;5085040;28;20292;-66
2021/09/07 09:13:22;;;;;;;5.17;2.33;;;;;;;19.96;56.77;101604.47;5019506;28;20664;-69
2021/09/07 09:16:03;;;;;;;2.47;2.17;;;;;;;19.92;58.08;101607.66;5028481;28;20225;-69
2021/09/07 09:18:35;;;;;;;2.33;2.13;;;;;;;19.84;58.03;101597.44;5024115;28;20298;-70
2021/09/07 09:21:21;;;;;;;4.03;2.20;;;;;;;19.87;59.36;101604.47;5027842;28;20206;-69
2021/09/07 09:24:11;;;;;;;6.40;2.17;;;;;;;20.09;57.58;101598.72;5028379;28;20210;-69
2021/09/07 09:26:51;;;;;;;5.07;2.00;;;;;;;20.07;58.45;101595.28;5022241;28;20204;-69
2021/09/07 09:29:25;;;;;;;6.63;2.20;;;;;;;20.14;58.06;101597.28;5027517;28;20209;-69
2021/09/07 09:32:00;;;;;;;3.93;2.10;;;;;;;20.19;57.39;101604.16;5027335;28;20204;-69
2021/09/07 09:34:29;;;;;;;5.00;2.13;;;;;;;20.14;57.77;101596.41;5023666;28;20221;-69
2021/09/07 09:37:03;;;;;;;4.53;2.43;;;;;;;20.37;56.10;101591.50;5021577;28;20203;-69
2021/09/07 09:39:39;;;;;;;4.10;2.40;;;;;;;20.50;55.13;101593.94;5024195;28;20201;-69
2021/09/07 09:42:08;;;;;;;4.10;2.50;;;;;;;20.36;56.22;101604.28;5027031;28;20194;-69
2021/09/07 09:44:38;;;;;;;3.90;2.30;;;;;;;20.21;56.48;101572.16;5027809;28;21456;-68
2021/09/07 09:47:07;;;;;;;4.43;2.37;;;;;;;20.54;55.56;101589.94;5025561;28;20626;-65
2021/09/07 09:49:35;;;;;;;3.13;2.27;;;;;;;20.26;56.48;101561.69;5031110;28;20716;-65
2021/09/07 09:52:06;;;;;;;7.17;2.43;;;;;;;20.57;56.23;101586.91;5022999;28;20589;-65
2021/09/07 09:54:36;;;;;;;3.80;2.10;;;;;;;20.61;55.14;101578.28;5030503;28;20215;-65
2021/09/07 09:57:05;;;;;;;4.93;2.30;;;;;;;20.45;56.73;101572.56;5030879;28;20286;-65
2021/09/07 09:59:34;;;;;;;4.00;2.37;;;;;;;20.45;57.58;101578.00;5029033;28;20602;-65
2021/09/07 10:02:04;;;;;;;5.70;2.37;;;;;;;20.49;56.24;101575.84;5031111;28;20685;-64
2021/09/07 10:04:32;;;;;;;4.13;2.30;;;;;;;20.31;56.60;101532.94;5030397;28;20306;-65
2021/09/07 10:07:00;;;;;;;3.27;2.30;;;;;;;20.36;57.26;101562.50;5030443;28;20631;-65
2021/09/07 10:09:29;;;;;;;3.50;2.20;;;;;;;20.52;56.96;101570.97;5028037;28;20209;-64
2021/09/07 10:12:10;;;;;;;4.20;2.07;;;;;;;20.56;56.97;101566.94;5030467;28;20230;-65
2021/09/07 10:14:45;;;;;;;2.43;1.80;;;;;;;20.71;56.54;101567.31;5026846;28;20700;-65
2021/09/07 10:17:41;;;;;;;3.20;2.30;;;;;;;20.93;55.49;101566.06;5027645;28;20195;-65
2021/09/07 10:20:15;;;;;;;4.47;2.10;;;;;;;20.97;54.90;101568.34;5029646;28;20411;-65
2021/09/07 10:25:58;;;;;;;2.57;1.90;;;;;;;21.15;53.83;101560.22;5026352;28;20214;-69
2021/09/07 10:28:31;;;;;;;9.03;2.27;;;;;;;21.06;55.26;101550.19;5024931;28;20209;-68
2021/09/07 10:31:02;;;;;;;3.77;2.00;;;;;;;21.10;54.03;101554.31;5028275;28;20205;-68
2021/09/07 10:33:35;;;;;;;3.40;2.30;;;;;;;20.92;54.98;101539.78;5026331;28;20313;-68
2021/09/07 10:36:14;;;;;;;4.10;2.10;;;;;;;21.28;54.85;101547.06;5030095;28;20218;-68
2021/09/07 10:38:45;;;;;;;3.33;2.20;;;;;;;21.15;53.93;101532.91;5026657;28;20198;-69
2021/09/07 10:41:45;;;;;;;3.83;2.20;;;;;;;21.19;53.39;101539.78;5027553;28;20270;-68
2021/09/07 10:44:30;;;;;;;3.03;1.70;;;;;;;21.28;53.61;101548.94;5016822;28;20220;-68
2021/09/07 10:47:07;;;;;;;3.73;2.47;;;;;;;21.44;53.16;101549.13;5028882;28;20198;-68
2021/09/07 10:49:47;;;;;;;3.10;2.23;;;;;;;21.45;52.78;101558.19;5029685;28;20685;-69
2021/09/07 10:52:20;;;;;;;4.33;2.40;;;;;;;21.55;52.96;101546.16;5027003;28;20213;-68
2021/09/07 10:55:14;;;;;;;4.10;2.40;;;;;;;21.53;53.17;101552.81;5029467;28;20214;-68
2021/09/07 10:57:57;;;;;;;2.87;2.10;;;;;;;21.67;51.91;101542.16;5025586;28;20612;-68
2021/09/07 11:00:39;;;;;;;2.93;1.97;;;;;;;21.54;52.59;101549.06;5029207;28;20743;-65
2021/09/07 11:03:24;;;;;;;3.93;2.27;;;;;;;21.65;52.41;101541.47;5026846;28;20206;-65
2021/09/07 11:05:54;;;;;;;3.20;1.90;;;;;;;21.74;52.56;101534.22;5027056;28;20202;-65
2021/09/07 11:08:45;;;;;;;3.33;2.07;;;;;;;21.84;51.88;101540.47;5028802;28;20195;-65
2021/09/07 11:11:25;;;;;;;2.53;1.90;;;;;;;21.67;52.57;101520.28;5025012;28;20227;-65
2021/09/07 11:14:08;;;;;;;3.13;1.90;;;;;;;22.06;51.55;101541.03;5029493;28;20214;-66
2021/09/07 11:16:36;;;;;;;3.77;1.93;;;;;;;21.99;52.35;101541.59;5028778;28;20591;-66
2021/09/07 11:19:04;;;;;;;1.90;1.70;;;;;;;22.27;50.94;101546.97;5027337;28;20194;-65
2021/09/07 11:21:34;;;;;;;4.40;2.43;;;;;;;22.54;49.74;101544.06;5029029;28;20195;-66
2021/09/07 11:24:03;;;;;;;3.73;2.10;;;;;;;22.44;50.78;101542.47;5023808;28;20211;-66
2021/09/07 11:26:32;;;;;;;4.37;2.33;;;;;;;22.27;50.55;101542.34;5027848;28;20634;-67
2021/09/07 11:29:00;;;;;;;2.57;2.30;;;;;;;22.27;50.73;101544.22;5025721;28;20549;-66
2021/09/07 11:31:28;;;;;;;4.53;2.50;;;;;;;22.00;50.64;101551.53;5023600;28;20230;-65
2021/09/07 11:33:56;;;;;;;3.27;2.17;;;;;;;21.88;51.56;101551.94;5028937;28;20265;-65
2021/09/07 11:36:24;;;;;;;2.97;2.00;;;;;;;22.09;50.99;101546.16;5028619;28;20230;-66
2021/09/07 11:38:54;;;;;;;3.20;1.77;;;;;;;22.25;50.24;101536.19;5028932;28;20209;-64
2021/09/07 11:41:24;;;;;;;4.33;2.10;;;;;;;22.17;50.54;101540.75;5028634;28;20699;-68
2021/09/07 11:43:55;;;;;;;3.23;2.47;;;;;;;21.92;52.30;101542.41;5029032;28;20202;-68